sensor_id;sensor_type;location;lat;lon;timestamp;P1;durP1;ratioP1;P2;durP2;ratioP2
75246;SDS011;63844;50.042;19.224;2022-11-04T00:01:51;17.90;;;7.70;;
75246;SDS011;63844;50.042;19.224;2022-11-04T00:04:18;19.80;;;10.20;;
75246;SDS011;63844;50.042;19.224;2022-11-04T00:06:46;17.40;;;7.80;;
75246;SDS011;63844;50.042;19.224;2022-11-04T00:09:20;16.80;;;8.10;;
75246;SDS011;63844;50.042;19.224;2022-11-04T00:11:48;16.30;;;8.10;;
75246;SDS011;63844;50.042;19.224;2022-11-04T00:14:34;23.10;;;10.20;;
75246;SDS011;63844;50.042;19.224;2022-11-04T00:17:01;20.80;;;9.40;;
75246;SDS011;63844;50.042;19.224;2022-11-04T00:19:48;22.10;;;10.30;;
75246;SDS011;63844;50.042;19.224;2022-11-04T00:22:35;25.00;;;10.30;;
75246;SDS011;63844;50.042;19.224;2022-11-04T00:25:22;20.90;;;9.00;;
75246;SDS011;63844;50.042;19.224;2022-11-04T00:28:09;27.20;;;8.70;;
75246;SDS011;63844;50.042;19.224;2022-11-04T00:31:00;22.00;;;9.90;;
75246;SDS011;63844;50.042;19.224;2022-11-04T00:33:46;19.00;;;9.40;;
75246;SDS011;63844;50.042;19.224;2022-11-04T00:36:14;19.40;;;9.10;;
75246;SDS011;63844;50.042;19.224;2022-11-04T00:38:41;19.00;;;8.60;;
75246;SDS011;63844;50.042;19.224;2022-11-04T00:41:07;18.90;;;8.50;;
75246;SDS011;63844;50.042;19.224;2022-11-04T00:43:55;15.90;;;7.10;;
75246;SDS011;63844;50.042;19.224;2022-11-04T00:46:26;20.80;;;9.00;;
75246;SDS011;63844;50.042;19.224;2022-11-04T00:48:54;16.70;;;8.70;;
75246;SDS011;63844;50.042;19.224;2022-11-04T00:53:47;16.40;;;8.20;;
75246;SDS011;63844;50.042;19.224;2022-11-04T00:56:14;14.60;;;7.30;;
75246;SDS011;63844;50.042;19.224;2022-11-04T00:58:40;13.00;;;6.80;;
75246;SDS011;63844;50.042;19.224;2022-11-04T01:01:08;14.90;;;7.60;;
75246;SDS011;63844;50.042;19.224;2022-11-04T01:03:35;17.50;;;8.60;;
75246;SDS011;63844;50.042;19.224;2022-11-04T01:06:03;20.80;;;7.30;;
75246;SDS011;63844;50.042;19.224;2022-11-04T01:08:30;17.40;;;7.80;;
75246;SDS011;63844;50.042;19.224;2022-11-04T01:10:59;21.00;;;9.30;;
75246;SDS011;63844;50.042;19.224;2022-11-04T01:13:27;21.80;;;9.10;;
75246;SDS011;63844;50.042;19.224;2022-11-04T01:15:56;21.20;;;10.40;;
75246;SDS011;63844;50.042;19.224;2022-11-04T01:18:26;19.90;;;8.90;;
75246;SDS011;63844;50.042;19.224;2022-11-04T01:20:53;24.90;;;11.00;;
75246;SDS011;63844;50.042;19.224;2022-11-04T01:23:20;21.10;;;10.40;;
75246;SDS011;63844;50.042;19.224;2022-11-04T01:25:46;24.50;;;10.30;;
75246;SDS011;63844;50.042;19.224;2022-11-04T01:28:12;24.80;;;12.00;;
75246;SDS011;63844;50.042;19.224;2022-11-04T01:30:39;19.50;;;10.10;;
75246;SDS011;63844;50.042;19.224;2022-11-04T01:33:05;23.70;;;10.10;;
75246;SDS011;63844;50.042;19.224;2022-11-04T01:35:31;21.20;;;9.30;;
75246;SDS011;63844;50.042;19.224;2022-11-04T01:37:58;19.10;;;9.70;;
75246;SDS011;63844;50.042;19.224;2022-11-04T01:40:24;18.30;;;8.90;;
75246;SDS011;63844;50.042;19.224;2022-11-04T01:42:51;17.20;;;8.00;;
75246;SDS011;63844;50.042;19.224;2022-11-04T01:45:18;21.40;;;9.80;;
75246;SDS011;63844;50.042;19.224;2022-11-04T01:47:48;18.30;;;9.40;;
75246;SDS011;63844;50.042;19.224;2022-11-04T01:50:24;19.20;;;9.80;;
75246;SDS011;63844;50.042;19.224;2022-11-04T01:52:55;20.50;;;9.30;;
75246;SDS011;63844;50.042;19.224;2022-11-04T01:55:35;16.90;;;8.30;;
75246;SDS011;63844;50.042;19.224;2022-11-04T01:58:10;18.00;;;8.50;;
75246;SDS011;63844;50.042;19.224;2022-11-04T02:00:39;17.40;;;7.80;;
75246;SDS011;63844;50.042;19.224;2022-11-04T02:03:08;15.50;;;7.80;;
75246;SDS011;63844;50.042;19.224;2022-11-04T02:05:40;16.20;;;7.30;;
75246;SDS011;63844;50.042;19.224;2022-11-04T02:08:07;13.50;;;7.30;;
75246;SDS011;63844;50.042;19.224;2022-11-04T02:10:35;16.80;;;8.20;;
75246;SDS011;63844;50.042;19.224;2022-11-04T02:13:05;14.90;;;7.50;;
75246;SDS011;63844;50.042;19.224;2022-11-04T02:18:24;16.10;;;7.60;;
75246;SDS011;63844;50.042;19.224;2022-11-04T02:21:27;18.10;;;8.10;;
75246;SDS011;63844;50.042;19.224;2022-11-04T02:24:11;17.40;;;8.40;;
75246;SDS011;63844;50.042;19.224;2022-11-04T02:29:48;14.70;;;7.90;;
75246;SDS011;63844;50.042;19.224;2022-11-04T02:35:14;16.20;;;7.90;;
75246;SDS011;63844;50.042;19.224;2022-11-04T02:38:09;16.30;;;7.40;;
75246;SDS011;63844;50.042;19.224;2022-11-04T02:41:00;14.30;;;6.50;;
75246;SDS011;63844;50.042;19.224;2022-11-04T02:46:37;13.50;;;6.30;;
75246;SDS011;63844;50.042;19.224;2022-11-04T02:49:09;18.00;;;7.60;;
75246;SDS011;63844;50.042;19.224;2022-11-04T02:54:39;18.20;;;7.50;;
75246;SDS011;63844;50.042;19.224;2022-11-04T02:57:11;16.10;;;7.90;;
75246;SDS011;63844;50.042;19.224;2022-11-04T02:59:42;13.60;;;7.30;;
75246;SDS011;63844;50.042;19.224;2022-11-04T03:02:14;16.80;;;7.70;;
75246;SDS011;63844;50.042;19.224;2022-11-04T03:04:46;14.60;;;7.10;;
75246;SDS011;63844;50.042;19.224;2022-11-04T03:07:16;16.10;;;7.80;;
75246;SDS011;63844;50.042;19.224;2022-11-04T03:09:49;16.10;;;7.50;;
75246;SDS011;63844;50.042;19.224;2022-11-04T03:12:21;15.00;;;6.80;;
75246;SDS011;63844;50.042;19.224;2022-11-04T03:14:54;13.20;;;6.30;;
75246;SDS011;63844;50.042;19.224;2022-11-04T03:17:38;12.30;;;6.20;;
75246;SDS011;63844;50.042;19.224;2022-11-04T03:20:16;9.20;;;4.50;;
75246;SDS011;63844;50.042;19.224;2022-11-04T03:22:45;10.50;;;5.30;;
75246;SDS011;63844;50.042;19.224;2022-11-04T03:25:12;13.40;;;5.40;;
75246;SDS011;63844;50.042;19.224;2022-11-04T03:27:42;10.10;;;5.90;;
75246;SDS011;63844;50.042;19.224;2022-11-04T03:30:14;13.80;;;5.90;;
75246;SDS011;63844;50.042;19.224;2022-11-04T03:35:15;11.50;;;6.20;;
75246;SDS011;63844;50.042;19.224;2022-11-04T03:37:43;13.10;;;6.10;;
75246;SDS011;63844;50.042;19.224;2022-11-04T03:40:10;7.80;;;4.30;;
75246;SDS011;63844;50.042;19.224;2022-11-04T03:42:40;13.30;;;6.90;;
75246;SDS011;63844;50.042;19.224;2022-11-04T03:45:11;13.70;;;5.70;;
75246;SDS011;63844;50.042;19.224;2022-11-04T03:47:39;14.40;;;6.50;;
75246;SDS011;63844;50.042;19.224;2022-11-04T03:50:19;10.70;;;5.20;;
75246;SDS011;63844;50.042;19.224;2022-11-04T03:52:52;15.40;;;6.70;;
75246;SDS011;63844;50.042;19.224;2022-11-04T03:55:18;13.10;;;6.20;;
75246;SDS011;63844;50.042;19.224;2022-11-04T04:00:33;13.00;;;6.70;;
75246;SDS011;63844;50.042;19.224;2022-11-04T04:03:09;13.20;;;6.80;;
75246;SDS011;63844;50.042;19.224;2022-11-04T04:05:50;12.40;;;6.20;;
75246;SDS011;63844;50.042;19.224;2022-11-04T04:08:34;14.00;;;6.90;;
75246;SDS011;63844;50.042;19.224;2022-11-04T04:20:11;14.00;;;6.90;;
75246;SDS011;63844;50.042;19.224;2022-11-04T04:22:43;16.90;;;7.40;;
75246;SDS011;63844;50.042;19.224;2022-11-04T04:25:14;15.80;;;7.30;;
75246;SDS011;63844;50.042;19.224;2022-11-04T04:28:01;15.20;;;6.60;;
75246;SDS011;63844;50.042;19.224;2022-11-04T04:30:29;14.90;;;6.90;;
75246;SDS011;63844;50.042;19.224;2022-11-04T04:33:02;14.00;;;7.20;;
75246;SDS011;63844;50.042;19.224;2022-11-04T04:35:37;16.40;;;7.20;;
75246;SDS011;63844;50.042;19.224;2022-11-04T04:38:21;15.10;;;6.70;;
75246;SDS011;63844;50.042;19.224;2022-11-04T04:41:12;13.00;;;6.70;;
75246;SDS011;63844;50.042;19.224;2022-11-04T04:44:02;12.70;;;6.40;;
75246;SDS011;63844;50.042;19.224;2022-11-04T04:46:54;13.60;;;4.60;;
75246;SDS011;63844;50.042;19.224;2022-11-04T04:49:23;11.70;;;6.40;;
75246;SDS011;63844;50.042;19.224;2022-11-04T04:51:49;15.60;;;7.80;;
75246;SDS011;63844;50.042;19.224;2022-11-04T04:54:15;17.80;;;7.80;;
75246;SDS011;63844;50.042;19.224;2022-11-04T04:56:42;15.70;;;7.60;;
75246;SDS011;63844;50.042;19.224;2022-11-04T04:59:08;14.60;;;7.00;;
75246;SDS011;63844;50.042;19.224;2022-11-04T05:01:34;14.50;;;6.70;;
75246;SDS011;63844;50.042;19.224;2022-11-04T05:04:01;14.90;;;6.70;;
75246;SDS011;63844;50.042;19.224;2022-11-04T05:06:27;12.00;;;5.80;;
75246;SDS011;63844;50.042;19.224;2022-11-04T05:08:54;15.50;;;7.10;;
75246;SDS011;63844;50.042;19.224;2022-11-04T05:11:20;14.10;;;6.00;;
75246;SDS011;63844;50.042;19.224;2022-11-04T05:13:47;16.70;;;6.90;;
75246;SDS011;63844;50.042;19.224;2022-11-04T05:16:13;16.00;;;6.50;;
75246;SDS011;63844;50.042;19.224;2022-11-04T05:18:39;13.80;;;7.00;;
75246;SDS011;63844;50.042;19.224;2022-11-04T05:21:07;17.40;;;7.30;;
75246;SDS011;63844;50.042;19.224;2022-11-04T05:23:36;15.00;;;6.80;;
75246;SDS011;63844;50.042;19.224;2022-11-04T05:26:03;14.80;;;6.50;;
75246;SDS011;63844;50.042;19.224;2022-11-04T05:28:30;16.10;;;6.80;;
75246;SDS011;63844;50.042;19.224;2022-11-04T05:31:01;16.00;;;6.90;;
75246;SDS011;63844;50.042;19.224;2022-11-04T05:33:29;14.90;;;7.30;;
75246;SDS011;63844;50.042;19.224;2022-11-04T05:36:04;13.10;;;7.50;;
75246;SDS011;63844;50.042;19.224;2022-11-04T05:38:41;16.90;;;6.80;;
75246;SDS011;63844;50.042;19.224;2022-11-04T05:41:09;15.30;;;7.20;;
75246;SDS011;63844;50.042;19.224;2022-11-04T05:43:37;18.80;;;7.30;;
75246;SDS011;63844;50.042;19.224;2022-11-04T05:46:04;19.80;;;7.80;;
75246;SDS011;63844;50.042;19.224;2022-11-04T05:48:30;17.10;;;7.50;;
75246;SDS011;63844;50.042;19.224;2022-11-04T05:50:57;16.00;;;8.00;;
75246;SDS011;63844;50.042;19.224;2022-11-04T05:53:23;15.00;;;7.20;;
75246;SDS011;63844;50.042;19.224;2022-11-04T05:55:49;15.70;;;7.60;;
75246;SDS011;63844;50.042;19.224;2022-11-04T06:00:42;15.20;;;5.70;;
75246;SDS011;63844;50.042;19.224;2022-11-04T06:03:09;11.40;;;5.70;;
75246;SDS011;63844;50.042;19.224;2022-11-04T06:05:35;14.00;;;6.70;;
75246;SDS011;63844;50.042;19.224;2022-11-04T06:10:28;9.80;;;5.70;;
75246;SDS011;63844;50.042;19.224;2022-11-04T06:12:55;13.60;;;5.00;;
75246;SDS011;63844;50.042;19.224;2022-11-04T06:15:22;12.40;;;6.30;;
75246;SDS011;63844;50.042;19.224;2022-11-04T06:17:49;14.50;;;6.50;;
75246;SDS011;63844;50.042;19.224;2022-11-04T06:20:15;16.40;;;7.40;;
75246;SDS011;63844;50.042;19.224;2022-11-04T06:22:41;13.10;;;6.50;;
75246;SDS011;63844;50.042;19.224;2022-11-04T06:25:08;12.20;;;5.70;;
75246;SDS011;63844;50.042;19.224;2022-11-04T06:30:01;9.40;;;4.20;;
75246;SDS011;63844;50.042;19.224;2022-11-04T06:32:27;13.70;;;5.50;;
75246;SDS011;63844;50.042;19.224;2022-11-04T06:34:54;9.60;;;4.50;;
75246;SDS011;63844;50.042;19.224;2022-11-04T06:37:20;12.10;;;6.00;;
75246;SDS011;63844;50.042;19.224;2022-11-04T06:39:47;9.20;;;4.40;;
75246;SDS011;63844;50.042;19.224;2022-11-04T06:42:13;13.40;;;6.10;;
75246;SDS011;63844;50.042;19.224;2022-11-04T06:44:39;11.30;;;5.20;;
75246;SDS011;63844;50.042;19.224;2022-11-04T06:47:06;17.10;;;5.80;;
75246;SDS011;63844;50.042;19.224;2022-11-04T06:49:33;8.80;;;4.20;;
75246;SDS011;63844;50.042;19.224;2022-11-04T06:51:59;12.80;;;6.30;;
75246;SDS011;63844;50.042;19.224;2022-11-04T06:54:27;12.60;;;5.80;;
75246;SDS011;63844;50.042;19.224;2022-11-04T06:56:54;14.00;;;5.80;;
75246;SDS011;63844;50.042;19.224;2022-11-04T06:59:20;9.30;;;4.00;;
75246;SDS011;63844;50.042;19.224;2022-11-04T07:01:48;12.50;;;5.40;;
75246;SDS011;63844;50.042;19.224;2022-11-04T07:04:16;10.20;;;5.70;;
75246;SDS011;63844;50.042;19.224;2022-11-04T07:06:42;13.50;;;6.60;;
75246;SDS011;63844;50.042;19.224;2022-11-04T07:11:36;12.10;;;6.10;;
75246;SDS011;63844;50.042;19.224;2022-11-04T07:14:03;10.90;;;6.00;;
75246;SDS011;63844;50.042;19.224;2022-11-04T07:16:29;15.40;;;6.30;;
75246;SDS011;63844;50.042;19.224;2022-11-04T07:18:56;12.80;;;5.10;;
75246;SDS011;63844;50.042;19.224;2022-11-04T07:21:22;13.60;;;6.20;;
75246;SDS011;63844;50.042;19.224;2022-11-04T07:23:49;12.80;;;6.50;;
75246;SDS011;63844;50.042;19.224;2022-11-04T07:26:15;13.60;;;6.30;;
75246;SDS011;63844;50.042;19.224;2022-11-04T07:28:42;13.20;;;6.40;;
75246;SDS011;63844;50.042;19.224;2022-11-04T07:33:36;11.30;;;5.90;;
75246;SDS011;63844;50.042;19.224;2022-11-04T07:36:07;12.70;;;5.00;;
75246;SDS011;63844;50.042;19.224;2022-11-04T07:38:36;10.90;;;5.20;;
75246;SDS011;63844;50.042;19.224;2022-11-04T07:41:02;13.10;;;5.10;;
75246;SDS011;63844;50.042;19.224;2022-11-04T07:43:30;10.30;;;4.90;;
75246;SDS011;63844;50.042;19.224;2022-11-04T07:46:03;9.50;;;4.20;;
75246;SDS011;63844;50.042;19.224;2022-11-04T07:48:32;12.30;;;5.10;;
75246;SDS011;63844;50.042;19.224;2022-11-04T07:50:59;12.10;;;4.60;;
75246;SDS011;63844;50.042;19.224;2022-11-04T07:53:27;9.90;;;5.10;;
75246;SDS011;63844;50.042;19.224;2022-11-04T07:55:54;8.70;;;4.60;;
75246;SDS011;63844;50.042;19.224;2022-11-04T07:58:21;12.00;;;4.50;;
75246;SDS011;63844;50.042;19.224;2022-11-04T08:00:49;11.40;;;5.70;;
75246;SDS011;63844;50.042;19.224;2022-11-04T08:03:15;9.80;;;4.80;;
75246;SDS011;63844;50.042;19.224;2022-11-04T08:05:42;10.00;;;4.30;;
75246;SDS011;63844;50.042;19.224;2022-11-04T08:08:08;13.70;;;4.50;;
75246;SDS011;63844;50.042;19.224;2022-11-04T08:10:35;6.80;;;3.30;;
75246;SDS011;63844;50.042;19.224;2022-11-04T08:13:01;9.00;;;4.40;;
75246;SDS011;63844;50.042;19.224;2022-11-04T08:15:28;10.70;;;5.30;;
75246;SDS011;63844;50.042;19.224;2022-11-04T08:17:55;10.60;;;5.60;;
75246;SDS011;63844;50.042;19.224;2022-11-04T08:20:21;12.50;;;5.50;;
75246;SDS011;63844;50.042;19.224;2022-11-04T08:22:47;10.40;;;5.30;;
75246;SDS011;63844;50.042;19.224;2022-11-04T08:25:14;9.50;;;5.40;;
75246;SDS011;63844;50.042;19.224;2022-11-04T08:27:40;10.30;;;4.40;;
75246;SDS011;63844;50.042;19.224;2022-11-04T08:30:07;8.30;;;3.80;;
75246;SDS011;63844;50.042;19.224;2022-11-04T08:32:34;10.20;;;4.80;;
75246;SDS011;63844;50.042;19.224;2022-11-04T08:35:00;11.70;;;5.00;;
75246;SDS011;63844;50.042;19.224;2022-11-04T08:37:27;10.80;;;5.00;;
75246;SDS011;63844;50.042;19.224;2022-11-04T08:39:53;8.30;;;5.30;;
75246;SDS011;63844;50.042;19.224;2022-11-04T08:42:20;10.20;;;5.00;;
75246;SDS011;63844;50.042;19.224;2022-11-04T08:44:50;10.70;;;5.80;;
75246;SDS011;63844;50.042;19.224;2022-11-04T08:47:17;11.80;;;5.30;;
75246;SDS011;63844;50.042;19.224;2022-11-04T08:49:44;12.00;;;5.40;;
75246;SDS011;63844;50.042;19.224;2022-11-04T08:52:10;10.50;;;5.20;;
75246;SDS011;63844;50.042;19.224;2022-11-04T08:57:03;9.00;;;3.60;;
75246;SDS011;63844;50.042;19.224;2022-11-04T08:59:30;13.30;;;5.90;;
75246;SDS011;63844;50.042;19.224;2022-11-04T09:01:57;14.10;;;5.50;;
75246;SDS011;63844;50.042;19.224;2022-11-04T09:06:50;13.20;;;6.00;;
75246;SDS011;63844;50.042;19.224;2022-11-04T09:09:17;19.70;;;8.00;;
75246;SDS011;63844;50.042;19.224;2022-11-04T09:11:45;10.80;;;4.90;;
75246;SDS011;63844;50.042;19.224;2022-11-04T09:14:12;9.80;;;4.60;;
75246;SDS011;63844;50.042;19.224;2022-11-04T09:16:40;8.00;;;5.00;;
75246;SDS011;63844;50.042;19.224;2022-11-04T09:19:07;9.70;;;4.60;;
75246;SDS011;63844;50.042;19.224;2022-11-04T09:21:34;10.80;;;5.10;;
75246;SDS011;63844;50.042;19.224;2022-11-04T09:24:01;9.80;;;5.10;;
75246;SDS011;63844;50.042;19.224;2022-11-04T09:26:28;8.70;;;4.80;;
75246;SDS011;63844;50.042;19.224;2022-11-04T09:28:55;10.30;;;4.50;;
75246;SDS011;63844;50.042;19.224;2022-11-04T09:31:23;8.80;;;4.80;;
75246;SDS011;63844;50.042;19.224;2022-11-04T09:33:52;9.80;;;5.10;;
75246;SDS011;63844;50.042;19.224;2022-11-04T09:36:19;9.50;;;4.90;;
75246;SDS011;63844;50.042;19.224;2022-11-04T09:38:46;18.80;;;6.60;;
75246;SDS011;63844;50.042;19.224;2022-11-04T09:47:00;10.70;;;5.50;;
75246;SDS011;63844;50.042;19.224;2022-11-04T09:49:29;12.60;;;5.80;;
75246;SDS011;63844;50.042;19.224;2022-11-04T09:52:02;12.40;;;6.60;;
75246;SDS011;63844;50.042;19.224;2022-11-04T09:54:37;13.60;;;6.70;;
75246;SDS011;63844;50.042;19.224;2022-11-04T09:57:12;13.20;;;6.00;;
75246;SDS011;63844;50.042;19.224;2022-11-04T09:59:43;14.30;;;7.10;;
75246;SDS011;63844;50.042;19.224;2022-11-04T10:16:17;12.20;;;6.30;;
75246;SDS011;63844;50.042;19.224;2022-11-04T10:21:54;7.30;;;4.40;;
75246;SDS011;63844;50.042;19.224;2022-11-04T10:24:41;7.70;;;4.60;;
75246;SDS011;63844;50.042;19.224;2022-11-04T10:27:12;7.30;;;4.50;;
75246;SDS011;63844;50.042;19.224;2022-11-04T10:29:43;11.40;;;4.90;;
75246;SDS011;63844;50.042;19.224;2022-11-04T10:32:14;8.20;;;4.50;;
75246;SDS011;63844;50.042;19.224;2022-11-04T10:37:25;13.50;;;5.30;;
75246;SDS011;63844;50.042;19.224;2022-11-04T10:39:59;13.30;;;3.90;;
75246;SDS011;63844;50.042;19.224;2022-11-04T10:42:42;6.80;;;4.00;;
75246;SDS011;63844;50.042;19.224;2022-11-04T10:45:09;7.80;;;4.10;;
75246;SDS011;63844;50.042;19.224;2022-11-04T10:47:43;8.50;;;4.00;;
75246;SDS011;63844;50.042;19.224;2022-11-04T10:52:48;8.50;;;4.80;;
75246;SDS011;63844;50.042;19.224;2022-11-04T10:57:56;10.20;;;4.80;;
75246;SDS011;63844;50.042;19.224;2022-11-04T11:00:34;11.00;;;5.00;;
75246;SDS011;63844;50.042;19.224;2022-11-04T11:03:20;10.00;;;4.80;;
75246;SDS011;63844;50.042;19.224;2022-11-04T11:06:19;7.80;;;4.30;;
75246;SDS011;63844;50.042;19.224;2022-11-04T11:08:53;9.80;;;4.60;;
75246;SDS011;63844;50.042;19.224;2022-11-04T11:11:39;7.20;;;4.20;;
75246;SDS011;63844;50.042;19.224;2022-11-04T11:14:30;8.50;;;4.80;;
75246;SDS011;63844;50.042;19.224;2022-11-04T11:19:45;8.30;;;4.80;;
75246;SDS011;63844;50.042;19.224;2022-11-04T11:22:34;9.50;;;5.80;;
75246;SDS011;63844;50.042;19.224;2022-11-04T11:27:39;11.70;;;5.60;;
75246;SDS011;63844;50.042;19.224;2022-11-04T11:33:22;12.10;;;5.20;;
75246;SDS011;63844;50.042;19.224;2022-11-04T11:38:20;22.50;;;8.90;;
75246;SDS011;63844;50.042;19.224;2022-11-04T11:40:49;20.40;;;7.90;;
75246;SDS011;63844;50.042;19.224;2022-11-04T11:43:22;22.60;;;8.70;;
75246;SDS011;63844;50.042;19.224;2022-11-04T11:45:51;30.50;;;13.00;;
75246;SDS011;63844;50.042;19.224;2022-11-04T11:48:26;41.80;;;18.80;;
75246;SDS011;63844;50.042;19.224;2022-11-04T11:50:54;56.00;;;23.80;;
75246;SDS011;63844;50.042;19.224;2022-11-04T11:53:26;77.60;;;29.10;;
75246;SDS011;63844;50.042;19.224;2022-11-04T11:55:58;65.50;;;22.80;;
75246;SDS011;63844;50.042;19.224;2022-11-04T11:58:41;22.00;;;9.40;;
75246;SDS011;63844;50.042;19.224;2022-11-04T12:01:16;11.00;;;5.30;;
75246;SDS011;63844;50.042;19.224;2022-11-04T12:03:49;8.10;;;3.80;;
75246;SDS011;63844;50.042;19.224;2022-11-04T12:09:16;20.60;;;7.40;;
75246;SDS011;63844;50.042;19.224;2022-11-04T12:20:50;73.00;;;21.30;;
75246;SDS011;63844;50.042;19.224;2022-11-04T12:23:30;91.00;;;27.80;;
75246;SDS011;63844;50.042;19.224;2022-11-04T12:26:14;91.80;;;31.90;;
75246;SDS011;63844;50.042;19.224;2022-11-04T12:28:56;61.20;;;23.00;;
75246;SDS011;63844;50.042;19.224;2022-11-04T12:42:40;64.50;;;21.90;;
75246;SDS011;63844;50.042;19.224;2022-11-04T12:45:28;68.30;;;23.50;;
75246;SDS011;63844;50.042;19.224;2022-11-04T12:51:00;57.60;;;18.60;;
75246;SDS011;63844;50.042;19.224;2022-11-04T12:56:18;28.10;;;11.10;;
75246;SDS011;63844;50.042;19.224;2022-11-04T13:01:49;41.90;;;13.20;;
75246;SDS011;63844;50.042;19.224;2022-11-04T13:04:20;32.90;;;12.00;;
75246;SDS011;63844;50.042;19.224;2022-11-04T13:09:30;124.90;;;42.40;;
75246;SDS011;63844;50.042;19.224;2022-11-04T13:12:11;61.20;;;26.00;;
75246;SDS011;63844;50.042;19.224;2022-11-04T13:14:46;89.60;;;34.30;;
75246;SDS011;63844;50.042;19.224;2022-11-04T13:17:19;61.90;;;25.00;;
75246;SDS011;63844;50.042;19.224;2022-11-04T13:19:55;41.90;;;16.90;;
75246;SDS011;63844;50.042;19.224;2022-11-04T13:22:27;42.60;;;16.60;;
75246;SDS011;63844;50.042;19.224;2022-11-04T13:25:03;45.60;;;19.70;;
75246;SDS011;63844;50.042;19.224;2022-11-04T13:27:35;42.60;;;20.00;;
75246;SDS011;63844;50.042;19.224;2022-11-04T13:30:07;38.50;;;18.30;;
75246;SDS011;63844;50.042;19.224;2022-11-04T13:36:02;40.80;;;18.10;;
75246;SDS011;63844;50.042;19.224;2022-11-04T13:38:31;29.00;;;15.80;;
75246;SDS011;63844;50.042;19.224;2022-11-04T13:44:12;31.60;;;16.50;;
75246;SDS011;63844;50.042;19.224;2022-11-04T13:46:50;22.40;;;11.30;;
75246;SDS011;63844;50.042;19.224;2022-11-04T13:49:26;31.10;;;15.10;;
75246;SDS011;63844;50.042;19.224;2022-11-04T13:57:16;24.90;;;11.10;;
75246;SDS011;63844;50.042;19.224;2022-11-04T14:18:30;20.40;;;11.00;;
75246;SDS011;63844;50.042;19.224;2022-11-04T14:21:04;24.10;;;12.10;;
75246;SDS011;63844;50.042;19.224;2022-11-04T14:23:31;19.10;;;10.70;;
75246;SDS011;63844;50.042;19.224;2022-11-04T14:26:00;22.60;;;10.90;;
75246;SDS011;63844;50.042;19.224;2022-11-04T14:28:29;21.00;;;11.40;;
75246;SDS011;63844;50.042;19.224;2022-11-04T14:31:04;22.60;;;12.70;;
75246;SDS011;63844;50.042;19.224;2022-11-04T16:00:21;48.30;;;20.90;;
75246;SDS011;63844;50.042;19.224;2022-11-04T16:02:51;39.70;;;19.80;;
75246;SDS011;63844;50.042;19.224;2022-11-04T16:05:30;41.20;;;18.90;;
75246;SDS011;63844;50.042;19.224;2022-11-04T16:08:15;35.50;;;17.60;;
75246;SDS011;63844;50.042;19.224;2022-11-04T16:10:45;26.60;;;12.80;;
75246;SDS011;63844;50.042;19.224;2022-11-04T16:15:45;28.10;;;12.50;;
75246;SDS011;63844;50.042;19.224;2022-11-04T16:20:55;20.30;;;10.10;;
75246;SDS011;63844;50.042;19.224;2022-11-04T16:23:24;20.30;;;10.30;;
75246;SDS011;63844;50.042;19.224;2022-11-04T16:25:55;20.60;;;9.70;;
75246;SDS011;63844;50.042;19.224;2022-11-04T16:28:26;25.40;;;10.10;;
75246;SDS011;63844;50.042;19.224;2022-11-04T16:31:05;19.10;;;9.40;;
75246;SDS011;63844;50.042;19.224;2022-11-04T16:33:52;25.10;;;10.90;;
75246;SDS011;63844;50.042;19.224;2022-11-04T16:36:18;24.50;;;11.30;;
75246;SDS011;63844;50.042;19.224;2022-11-04T16:38:55;31.70;;;13.00;;
75246;SDS011;63844;50.042;19.224;2022-11-04T16:41:24;23.50;;;12.30;;
75246;SDS011;63844;50.042;19.224;2022-11-04T16:43:53;25.70;;;12.30;;
75246;SDS011;63844;50.042;19.224;2022-11-04T16:46:20;31.30;;;13.70;;
75246;SDS011;63844;50.042;19.224;2022-11-04T16:48:48;31.70;;;14.60;;
75246;SDS011;63844;50.042;19.224;2022-11-04T16:51:16;32.40;;;13.80;;
75246;SDS011;63844;50.042;19.224;2022-11-04T16:53:46;28.90;;;14.00;;
75246;SDS011;63844;50.042;19.224;2022-11-04T16:56:14;49.90;;;20.50;;
75246;SDS011;63844;50.042;19.224;2022-11-04T16:58:42;31.40;;;14.10;;
75246;SDS011;63844;50.042;19.224;2022-11-04T17:01:10;32.70;;;14.90;;
75246;SDS011;63844;50.042;19.224;2022-11-04T17:03:38;40.20;;;16.30;;
75246;SDS011;63844;50.042;19.224;2022-11-04T17:06:06;37.20;;;18.10;;
75246;SDS011;63844;50.042;19.224;2022-11-04T17:08:33;44.30;;;19.50;;
75246;SDS011;63844;50.042;19.224;2022-11-04T17:10:59;39.30;;;18.50;;
75246;SDS011;63844;50.042;19.224;2022-11-04T17:13:26;36.90;;;18.80;;
75246;SDS011;63844;50.042;19.224;2022-11-04T17:18:19;42.70;;;18.50;;
75246;SDS011;63844;50.042;19.224;2022-11-04T17:20:46;38.50;;;17.40;;
75246;SDS011;63844;50.042;19.224;2022-11-04T17:23:15;30.00;;;14.00;;
75246;SDS011;63844;50.042;19.224;2022-11-04T17:25:42;24.70;;;12.10;;
75246;SDS011;63844;50.042;19.224;2022-11-04T17:28:09;21.30;;;11.20;;
75246;SDS011;63844;50.042;19.224;2022-11-04T17:30:36;21.20;;;10.00;;
75246;SDS011;63844;50.042;19.224;2022-11-04T17:33:04;21.10;;;10.00;;
75246;SDS011;63844;50.042;19.224;2022-11-04T17:35:37;19.50;;;9.70;;
75246;SDS011;63844;50.042;19.224;2022-11-04T17:38:04;19.80;;;9.70;;
75246;SDS011;63844;50.042;19.224;2022-11-04T17:40:31;19.50;;;10.80;;
75246;SDS011;63844;50.042;19.224;2022-11-04T17:42:57;14.50;;;7.80;;
75246;SDS011;63844;50.042;19.224;2022-11-04T17:45:42;19.40;;;11.20;;
75246;SDS011;63844;50.042;19.224;2022-11-04T17:48:09;22.70;;;11.30;;
75246;SDS011;63844;50.042;19.224;2022-11-04T17:50:37;22.20;;;11.00;;
75246;SDS011;63844;50.042;19.224;2022-11-04T17:53:04;20.60;;;10.00;;
75246;SDS011;63844;50.042;19.224;2022-11-04T17:55:35;22.40;;;10.30;;
75246;SDS011;63844;50.042;19.224;2022-11-04T17:58:03;20.90;;;9.30;;
75246;SDS011;63844;50.042;19.224;2022-11-04T18:00:29;23.20;;;12.50;;
75246;SDS011;63844;50.042;19.224;2022-11-04T18:02:56;23.80;;;10.70;;
75246;SDS011;63844;50.042;19.224;2022-11-04T18:05:22;27.00;;;12.30;;
75246;SDS011;63844;50.042;19.224;2022-11-04T18:07:48;26.10;;;12.80;;
75246;SDS011;63844;50.042;19.224;2022-11-04T18:10:15;26.20;;;12.30;;
75246;SDS011;63844;50.042;19.224;2022-11-04T18:12:41;30.40;;;11.30;;
75246;SDS011;63844;50.042;19.224;2022-11-04T18:15:11;25.70;;;11.70;;
75246;SDS011;63844;50.042;19.224;2022-11-04T18:17:40;20.90;;;10.60;;
75246;SDS011;63844;50.042;19.224;2022-11-04T18:20:08;24.00;;;11.30;;
75246;SDS011;63844;50.042;19.224;2022-11-04T18:22:38;26.10;;;12.20;;
75246;SDS011;63844;50.042;19.224;2022-11-04T18:25:05;25.80;;;12.50;;
75246;SDS011;63844;50.042;19.224;2022-11-04T18:27:32;22.00;;;11.20;;
75246;SDS011;63844;50.042;19.224;2022-11-04T18:29:59;22.20;;;11.40;;
75246;SDS011;63844;50.042;19.224;2022-11-04T18:32:25;26.10;;;10.90;;
75246;SDS011;63844;50.042;19.224;2022-11-04T18:34:51;25.70;;;11.70;;
75246;SDS011;63844;50.042;19.224;2022-11-04T18:39:45;25.40;;;12.40;;
75246;SDS011;63844;50.042;19.224;2022-11-04T18:42:12;23.80;;;11.60;;
75246;SDS011;63844;50.042;19.224;2022-11-04T18:44:38;20.30;;;11.20;;
75246;SDS011;63844;50.042;19.224;2022-11-04T18:47:04;21.90;;;11.20;;
75246;SDS011;63844;50.042;19.224;2022-11-04T18:49:31;25.10;;;11.60;;
75246;SDS011;63844;50.042;19.224;2022-11-04T18:51:57;25.90;;;12.20;;